createdAt,value
2018-05-14T00:00:14.461Z,66.51
2018-05-14T00:01:14.340Z,66.13
2018-05-14T00:02:14.249Z,66.03
2018-05-14T00:03:14.158Z,66.42
2018-05-14T00:04:14.068Z,66.51
2018-05-14T00:05:14.008Z,66.51
2018-05-14T00:06:13.891Z,66.61
2018-05-14T00:07:13.799Z,66.13
2018-05-14T00:08:13.712Z,66.51
2018-05-14T00:09:14.160Z,66.22
2018-05-14T00:10:13.561Z,65.94
2018-05-14T00:11:13.444Z,65.65
2018-05-14T00:12:13.353Z,66.03
2018-05-14T00:13:13.266Z,66.61
2018-05-14T00:14:13.174Z,65.94
2018-05-14T00:15:13.118Z,65.46
2018-05-14T00:16:12.997Z,65.84
2018-05-14T00:17:12.908Z,65.84
2018-05-14T00:18:12.818Z,66.51
2018-05-14T00:19:12.730Z,66.22
2018-05-14T00:20:12.674Z,65.55
2018-05-14T00:21:12.550Z,66.61
2018-05-14T00:22:12.459Z,66.13
2018-05-14T00:23:13.110Z,66.61
2018-05-14T00:24:12.285Z,66.32
2018-05-14T00:25:12.221Z,66.51
2018-05-14T00:26:12.101Z,66.42
2018-05-14T00:27:12.016Z,67.09
2018-05-14T00:28:11.923Z,66.80
2018-05-14T00:29:11.837Z,66.61
2018-05-14T00:30:11.777Z,66.22
2018-05-14T00:31:11.653Z,67.18
2018-05-14T00:32:11.565Z,66.80
2018-05-14T00:33:11.784Z,66.89
2018-05-14T00:34:12.113Z,67.28
2018-05-14T00:35:11.328Z,67.66
2018-05-14T00:36:12.171Z,67.28
2018-05-14T00:37:11.120Z,66.99
2018-05-14T00:38:11.030Z,66.89
2018-05-14T00:39:10.940Z,66.80
2018-05-14T00:40:10.881Z,66.89
2018-05-14T00:41:10.762Z,66.80
2018-05-14T00:42:10.671Z,66.32
2018-05-14T00:43:10.582Z,66.22
2018-05-14T00:44:10.496Z,66.22
2018-05-14T00:45:10.407Z,65.94
2018-05-14T00:46:10.345Z,65.75
2018-05-14T00:47:10.226Z,65.36
2018-05-14T00:48:10.134Z,66.22
2018-05-14T00:49:10.045Z,66.13
2018-05-14T00:50:09.955Z,66.13
2018-05-14T00:51:09.899Z,65.36
2018-05-14T00:52:09.796Z,65.94
2018-05-14T00:53:09.686Z,65.65
2018-05-14T00:54:09.898Z,65.46
2018-05-14T00:55:09.515Z,65.55
2018-05-14T00:56:09.449Z,65.46
2018-05-14T00:57:10.166Z,66.03
2018-05-14T00:58:09.237Z,65.84
2018-05-14T00:59:09.148Z,66.42
2018-05-14T01:00:09.060Z,65.55
2018-05-14T01:01:09.004Z,66.13
2018-05-14T01:02:08.881Z,65.26
2018-05-14T01:03:08.791Z,64.98
2018-05-14T01:04:08.702Z,65.26
2018-05-14T01:05:08.614Z,65.46
2018-05-14T01:06:08.553Z,64.98
2018-05-14T01:07:08.434Z,65.84
2018-05-14T01:08:08.343Z,65.84
2018-05-14T01:09:08.254Z,64.98
2018-05-14T01:10:08.165Z,65.94
2018-05-14T01:11:08.623Z,65.75
2018-05-14T01:12:07.994Z,65.36
2018-05-14T01:13:07.896Z,65.26
2018-05-14T01:14:07.823Z,65.33
2018-05-14T01:15:07.717Z,65.14
2018-05-14T01:16:07.658Z,65.65
2018-05-14T01:17:07.541Z,65.14
2018-05-14T01:18:07.449Z,65.33
2018-05-14T01:19:07.360Z,65.42
2018-05-14T01:20:07.269Z,65.42
2018-05-14T01:21:07.182Z,65.71
2018-05-14T01:22:07.122Z,65.71
2018-05-14T01:23:07.000Z,65.71
2018-05-14T01:24:06.916Z,65.91
2018-05-14T01:25:06.819Z,65.71
2018-05-14T01:26:06.740Z,65.62
2018-05-14T01:27:06.670Z,65.62
2018-05-14T01:28:06.619Z,65.71
2018-05-14T01:29:06.751Z,65.71
2018-05-14T01:30:06.372Z,65.62
2018-05-14T01:31:06.288Z,65.52
2018-05-14T01:32:06.223Z,65.62
2018-05-14T01:33:06.106Z,65.71
2018-05-14T01:34:06.017Z,65.91
2018-05-14T01:35:05.925Z,66.67
2018-05-14T01:36:05.932Z,65.91
2018-05-14T01:37:05.774Z,65.52
2018-05-14T01:38:05.656Z,66.54
2018-05-14T01:39:05.565Z,66.29
2018-05-14T01:40:05.480Z,66.09
2018-05-14T01:41:05.385Z,65.91
2018-05-14T01:42:06.187Z,66.09
2018-05-14T01:43:05.500Z,65.42
2018-05-14T01:44:05.118Z,65.71
2018-05-14T01:45:05.027Z,65.62
2018-05-14T01:46:04.935Z,65.62
2018-05-14T01:47:04.878Z,65.62
2018-05-14T01:48:04.759Z,65.42
2018-05-14T01:49:04.667Z,65.71
2018-05-14T01:50:04.670Z,65.71
2018-05-14T01:51:04.489Z,65.71
2018-05-14T01:52:04.430Z,65.81
2018-05-14T01:53:04.319Z,65.14
2018-05-14T01:54:04.219Z,66.45
2018-05-14T01:55:04.129Z,65.91
2018-05-14T01:56:04.054Z,65.42
2018-05-14T01:57:04.078Z,65.30
2018-05-14T01:58:03.856Z,66.06
2018-05-14T01:59:03.769Z,66.83
2018-05-14T02:00:03.684Z,66.16
2018-05-14T02:01:03.591Z,66.54
2018-05-14T02:02:03.528Z,66.35
2018-05-14T02:03:03.508Z,65.97
2018-05-14T02:04:03.319Z,66.54
2018-05-14T02:05:04.136Z,66.74
2018-05-14T02:06:03.139Z,66.83
2018-05-14T02:07:03.080Z,66.64
2018-05-14T02:08:02.959Z,66.54
2018-05-14T02:09:02.871Z,66.45
2018-05-14T02:10:02.783Z,66.35
2018-05-14T02:11:03.673Z,66.54
2018-05-14T02:12:02.601Z,66.54
2018-05-14T02:13:02.551Z,66.64
2018-05-14T02:14:02.420Z,67.21
2018-05-14T02:15:03.192Z,66.74
2018-05-14T02:16:02.242Z,67.11
2018-05-14T02:17:02.157Z,67.41
2018-05-14T02:18:02.093Z,67.02
2018-05-14T02:19:01.971Z,67.79
2018-05-14T02:20:01.882Z,67.21
2018-05-14T02:21:01.791Z,67.21
2018-05-14T02:22:01.701Z,67.41
2018-05-14T02:23:01.642Z,67.31
2018-05-14T02:24:01.524Z,67.31
2018-05-14T02:25:01.434Z,67.50
2018-05-14T02:26:01.357Z,67.69
2018-05-14T02:27:01.253Z,67.21
2018-05-14T02:28:01.195Z,67.41
2018-05-14T02:29:01.072Z,67.69
2018-05-14T02:30:00.981Z,67.60
2018-05-14T02:31:00.893Z,67.21
2018-05-14T02:32:00.801Z,67.21
2018-05-14T02:33:00.745Z,67.60
2018-05-14T02:34:00.621Z,67.60
2018-05-14T02:35:00.534Z,67.79
2018-05-14T02:36:00.443Z,67.50
2018-05-14T02:37:00.351Z,67.88
2018-05-14T02:38:00.293Z,67.60
2018-05-14T02:39:00.171Z,68.07
2018-05-14T02:40:00.097Z,67.88
2018-05-14T02:40:59.992Z,68.07
2018-05-14T02:41:59.900Z,67.98
2018-05-14T02:42:59.858Z,68.07
2018-05-14T02:43:59.724Z,68.17
2018-05-14T02:44:59.633Z,68.17
2018-05-14T02:45:59.542Z,68.07
2018-05-14T02:46:59.453Z,67.98
2018-05-14T02:47:59.362Z,68.17
2018-05-14T02:48:59.301Z,68.46
2018-05-14T02:49:59.192Z,68.27
2018-05-14T02:50:59.091Z,68.17
2018-05-14T02:51:59.002Z,68.74
2018-05-14T02:52:58.914Z,67.60
2018-05-14T02:53:58.851Z,67.88
2018-05-14T02:54:58.734Z,68.07
2018-05-14T02:55:58.642Z,67.98
2018-05-14T02:56:58.552Z,68.07
2018-05-14T02:57:58.462Z,68.36
2018-05-14T02:58:58.407Z,67.88
2018-05-14T02:59:58.281Z,67.41
2018-05-14T03:00:58.193Z,67.69
2018-05-14T03:01:58.101Z,68.17
2018-05-14T03:02:58.658Z,68.07
2018-05-14T03:03:58.006Z,68.07
2018-05-14T03:04:57.852Z,68.65
2018-05-14T03:05:57.739Z,68.36
2018-05-14T03:06:57.653Z,68.94
2018-05-14T03:07:57.578Z,68.17
2018-05-14T03:08:57.504Z,68.55
2018-05-14T03:09:57.381Z,68.94
2018-05-14T03:10:57.295Z,69.03
2018-05-14T03:11:57.202Z,68.74
2018-05-14T03:12:57.110Z,68.84
2018-05-14T03:13:57.060Z,69.03
2018-05-14T03:14:56.929Z,68.94
2018-05-14T03:15:56.839Z,68.62
2018-05-14T03:16:56.754Z,68.80
2018-05-14T03:17:56.659Z,68.94
2018-05-14T03:18:56.569Z,68.17
2018-05-14T03:19:56.510Z,68.55
2018-05-14T03:20:56.391Z,68.36
2018-05-14T03:21:56.297Z,67.98
2018-05-14T03:22:56.208Z,68.17
2018-05-14T03:23:56.122Z,67.98
2018-05-14T03:24:56.060Z,68.46
2018-05-14T03:25:55.936Z,68.55
2018-05-14T03:26:55.847Z,68.17
2018-05-14T03:27:55.758Z,68.27
2018-05-14T03:28:55.669Z,68.27
2018-05-14T03:29:55.608Z,68.46
2018-05-14T03:30:55.485Z,68.36
2018-05-14T03:31:55.397Z,68.27
2018-05-14T03:32:55.308Z,68.55
2018-05-14T03:33:55.306Z,68.46
2018-05-14T03:34:55.126Z,69.03
2018-05-14T03:35:55.068Z,68.94
2018-05-14T03:36:54.946Z,68.36
2018-05-14T03:37:54.854Z,68.65
2018-05-14T03:38:56.660Z,68.94
2018-05-14T03:39:54.675Z,68.55
2018-05-14T03:40:54.706Z,68.55
2018-05-14T03:41:54.494Z,68.71
2018-05-14T03:42:54.402Z,68.46
2018-05-14T03:43:54.314Z,68.94
2018-05-14T03:44:54.224Z,68.84
2018-05-14T03:45:54.165Z,68.94
2018-05-14T03:46:54.045Z,68.84
2018-05-14T03:47:54.047Z,68.27
2018-05-14T03:48:53.865Z,68.65
2018-05-14T03:49:53.771Z,68.74
2018-05-14T03:50:53.718Z,68.84
2018-05-14T03:51:53.591Z,68.84
2018-05-14T03:52:53.503Z,68.27
2018-05-14T03:53:53.411Z,68.74
2018-05-14T03:54:53.425Z,68.94
2018-05-14T03:55:53.260Z,68.55
2018-05-14T03:56:53.665Z,68.84
2018-05-14T03:57:53.050Z,68.65
2018-05-14T03:58:52.961Z,68.65
2018-05-14T03:59:52.884Z,67.88
2018-05-14T04:00:52.783Z,68.17
2018-05-14T04:01:52.793Z,67.88
2018-05-14T04:02:52.600Z,67.88
2018-05-14T04:03:52.512Z,67.88
2018-05-14T04:04:52.422Z,67.60
2018-05-14T04:05:52.331Z,68.07
2018-05-14T04:06:52.272Z,68.07
2018-05-14T04:07:52.147Z,68.65
2018-05-14T04:08:52.158Z,68.17
2018-05-14T04:09:51.976Z,68.07
2018-05-14T04:10:51.884Z,68.17
2018-05-14T04:11:51.823Z,68.65
2018-05-14T04:12:51.701Z,68.17
2018-05-14T04:13:51.607Z,67.98
2018-05-14T04:14:51.526Z,67.91
2018-05-14T04:15:51.429Z,67.25
2018-05-14T04:16:51.371Z,67.98
2018-05-14T04:17:51.251Z,67.34
2018-05-14T04:18:51.160Z,67.72
2018-05-14T04:19:51.069Z,67.82
2018-05-14T04:20:50.982Z,68.21
2018-05-14T04:21:50.927Z,68.01
2018-05-14T04:22:50.800Z,67.15
2018-05-14T04:23:50.711Z,67.63
2018-05-14T04:24:50.621Z,66.86
2018-05-14T04:25:50.529Z,66.00
2018-05-14T04:26:50.440Z,66.22
2018-05-14T04:27:50.386Z,66.96
2018-05-14T04:28:50.262Z,66.42
2018-05-14T04:29:50.175Z,66.48
2018-05-14T04:30:50.081Z,66.61
2018-05-14T04:31:49.993Z,66.22
2018-05-14T04:32:49.938Z,66.51
2018-05-14T04:33:49.816Z,66.51
2018-05-14T04:34:49.732Z,66.32
2018-05-14T04:35:49.640Z,66.61
2018-05-14T04:36:49.547Z,66.80
2018-05-14T04:37:49.460Z,66.22
2018-05-14T04:38:49.399Z,66.51
2018-05-14T04:39:49.277Z,65.36
2018-05-14T04:40:49.188Z,65.36
2018-05-14T04:41:49.099Z,66.03
2018-05-14T04:42:49.010Z,66.42
2018-05-14T04:43:48.951Z,65.68
2018-05-14T04:44:48.830Z,65.08
2018-05-14T04:45:48.745Z,65.78
2018-05-14T04:46:49.227Z,65.78
2018-05-14T04:47:48.562Z,65.11
2018-05-14T04:48:48.506Z,65.49
2018-05-14T04:49:48.383Z,65.68
2018-05-14T04:50:49.236Z,65.59
2018-05-14T04:51:48.207Z,65.30
2018-05-14T04:52:48.119Z,65.39
2018-05-14T04:53:48.061Z,64.72
2018-05-14T04:54:47.944Z,65.49
2018-05-14T04:55:47.850Z,64.47
2018-05-14T04:56:47.761Z,64.95
2018-05-14T04:57:47.672Z,64.66
2018-05-14T04:58:47.585Z,64.66
2018-05-14T04:59:47.532Z,64.95
2018-05-14T05:00:47.408Z,65.23
2018-05-14T05:01:47.319Z,65.05
2018-05-14T05:02:47.234Z,65.23
2018-05-14T05:03:47.140Z,64.95
2018-05-14T05:04:47.100Z,64.95
2018-05-14T05:05:46.964Z,65.23
2018-05-14T05:06:46.874Z,64.66
2018-05-14T05:07:46.788Z,64.95
2018-05-14T05:08:46.700Z,64.66
2018-05-14T05:09:46.642Z,65.81
2018-05-14T05:10:46.523Z,64.66
2018-05-14T05:11:46.447Z,65.05
2018-05-14T05:12:46.352Z,65.43
2018-05-14T05:13:46.260Z,64.95
2018-05-14T05:14:46.170Z,65.62
2018-05-14T05:15:46.126Z,65.91
2018-05-14T05:16:45.993Z,64.89
2018-05-14T05:17:45.905Z,65.91
2018-05-14T05:18:45.818Z,66.03
2018-05-14T05:19:45.733Z,65.17
2018-05-14T05:20:45.673Z,65.17
2018-05-14T05:21:45.556Z,64.89
2018-05-14T05:22:45.516Z,65.65
2018-05-14T05:23:45.381Z,65.17
2018-05-14T05:24:45.288Z,64.89
2018-05-14T05:25:45.231Z,65.08
2018-05-14T05:26:45.114Z,65.84
2018-05-14T05:27:45.725Z,65.27
2018-05-14T05:28:44.935Z,65.08
2018-05-14T05:29:44.849Z,65.08
2018-05-14T05:30:44.792Z,65.65
2018-05-14T05:31:44.674Z,65.36
2018-05-14T05:32:44.677Z,64.40
2018-05-14T05:33:44.495Z,65.30
2018-05-14T05:34:44.413Z,65.69
2018-05-14T05:35:44.367Z,65.01
2018-05-14T05:36:44.236Z,64.82
2018-05-14T05:37:44.184Z,64.34
2018-05-14T05:38:44.056Z,64.72
2018-05-14T05:39:43.971Z,64.92
2018-05-14T05:40:43.883Z,65.69
2018-05-14T05:41:43.826Z,64.92
2018-05-14T05:42:43.705Z,64.25
2018-05-14T05:43:43.619Z,64.82
2018-05-14T05:44:43.534Z,65.11
2018-05-14T05:45:43.446Z,65.01
2018-05-14T05:46:44.195Z,65.20
2018-05-14T05:47:43.267Z,65.11
2018-05-14T05:48:43.182Z,64.66
2018-05-14T05:49:43.696Z,64.56
2018-05-14T05:50:43.011Z,64.09
2018-05-14T05:51:42.951Z,63.32
2018-05-14T05:52:42.832Z,65.33
2018-05-14T05:53:42.743Z,64.56
2018-05-14T05:54:42.657Z,63.51
2018-05-14T05:55:42.568Z,65.62
2018-05-14T05:56:42.520Z,63.70
2018-05-14T05:57:42.397Z,64.85
2018-05-14T05:58:42.306Z,63.22
2018-05-14T05:59:42.220Z,63.12
2018-05-14T06:00:42.131Z,64.12
2018-05-14T06:01:42.045Z,64.37
2018-05-14T06:02:41.991Z,63.73
2018-05-14T06:03:41.881Z,63.54
2018-05-14T06:04:41.784Z,64.50
2018-05-14T06:05:41.699Z,63.02
2018-05-14T06:06:41.610Z,63.35
2018-05-14T06:07:41.556Z,63.32
2018-05-14T06:08:41.437Z,62.84
2018-05-14T06:09:41.350Z,62.74
2018-05-14T06:10:41.262Z,62.93
2018-05-14T06:11:41.175Z,63.60
2018-05-14T06:12:41.094Z,63.99
2018-05-14T06:13:41.038Z,63.22
2018-05-14T06:14:41.007Z,63.89
2018-05-14T06:15:40.828Z,64.66
2018-05-14T06:16:40.742Z,65.33
2018-05-14T06:17:40.653Z,63.54
2018-05-14T06:18:40.603Z,62.93
2018-05-14T06:19:40.484Z,63.12
2018-05-14T06:20:40.395Z,62.48
2018-05-14T06:21:40.396Z,63.02
2018-05-14T06:22:40.225Z,63.15
2018-05-14T06:23:40.163Z,63.06
2018-05-14T06:24:40.046Z,62.58
2018-05-14T06:25:39.957Z,62.00
2018-05-14T06:26:39.871Z,62.96
2018-05-14T06:27:39.788Z,62.96
2018-05-14T06:28:39.733Z,62.19
2018-05-14T06:29:39.609Z,62.58
2018-05-14T06:30:39.527Z,63.35
2018-05-14T06:31:39.437Z,62.96
2018-05-14T06:32:39.349Z,62.68
2018-05-14T06:33:39.304Z,63.73
2018-05-14T06:34:39.177Z,61.61
2018-05-14T06:35:39.300Z,61.91
2018-05-14T06:36:39.000Z,62.19
2018-05-14T06:37:38.913Z,61.74
2018-05-14T06:38:38.830Z,60.78
2018-05-14T06:39:38.769Z,60.62
2018-05-14T06:40:38.652Z,60.14
2018-05-14T06:41:38.577Z,58.82
2018-05-14T06:42:38.573Z,60.68
2018-05-14T06:43:38.392Z,56.92
2018-05-14T06:44:38.341Z,57.40
2018-05-14T06:45:38.219Z,57.12
2018-05-14T06:46:38.133Z,59.04
2018-05-14T06:47:38.055Z,56.25
2018-05-14T06:48:37.970Z,57.50
2018-05-14T06:49:38.001Z,58.72
2018-05-14T06:50:37.793Z,57.57
2018-05-14T06:51:37.706Z,57.18
2018-05-14T06:52:37.619Z,59.20
2018-05-14T06:53:37.537Z,58.85
2018-05-14T06:54:37.482Z,58.17
2018-05-14T06:55:37.366Z,57.50
2018-05-14T06:56:37.373Z,57.14
2018-05-14T06:57:37.252Z,56.44
2018-05-14T06:58:37.111Z,56.90
2018-05-14T06:59:37.060Z,56.60
2018-05-14T07:00:36.942Z,59.81
2018-05-14T07:01:36.859Z,58.65
2018-05-14T07:02:36.776Z,57.40
2018-05-14T07:03:36.793Z,57.79
2018-05-14T07:04:36.643Z,58.08
2018-05-14T07:05:36.524Z,56.37
2018-05-14T07:06:36.440Z,57.53
2018-05-14T07:07:36.356Z,56.88
2018-05-14T07:08:36.272Z,55.54
2018-05-14T07:09:36.221Z,57.10
2018-05-14T07:10:36.194Z,55.18
2018-05-14T07:11:36.085Z,53.70
2018-05-14T07:12:36.727Z,54.60
2018-05-14T07:13:35.987Z,55.54
2018-05-14T07:14:35.800Z,54.74
2018-05-14T07:15:35.688Z,56.44
2018-05-14T07:16:35.605Z,56.25
2018-05-14T07:17:35.612Z,56.15
2018-05-14T07:18:35.436Z,56.18
2018-05-14T07:19:35.387Z,55.31
2018-05-14T07:20:35.273Z,57.24
2018-05-14T07:21:35.189Z,56.63
2018-05-14T07:22:35.103Z,56.35
2018-05-14T07:23:35.093Z,55.57
2018-05-14T07:24:35.064Z,55.70
2018-05-14T07:25:34.859Z,56.66
2018-05-14T07:26:34.772Z,55.15
2018-05-14T07:27:34.687Z,55.24
2018-05-14T07:28:34.605Z,55.05
2018-05-14T07:29:34.525Z,54.18
2018-05-14T07:30:34.470Z,55.54
2018-05-14T07:31:34.452Z,54.93
2018-05-14T07:32:34.274Z,55.51
2018-05-14T07:33:34.188Z,55.12
2018-05-14T07:34:34.109Z,55.31
2018-05-14T07:35:34.055Z,55.12
2018-05-14T07:36:33.943Z,55.34
2018-05-14T07:37:33.858Z,55.92
2018-05-14T07:38:33.871Z,53.61
2018-05-14T07:39:33.692Z,54.18
2018-05-14T07:40:33.699Z,54.47
2018-05-14T07:41:33.526Z,53.63
2018-05-14T07:42:33.440Z,52.57
2018-05-14T07:43:33.360Z,53.53
2018-05-14T07:44:33.280Z,54.50
2018-05-14T07:45:33.220Z,53.34
2018-05-14T07:46:33.108Z,54.60
2018-05-14T07:47:33.027Z,52.40
2018-05-14T07:48:32.942Z,53.66
2018-05-14T07:49:33.786Z,53.95
2018-05-14T07:50:32.811Z,52.31
2018-05-14T07:51:32.695Z,52.59
2018-05-14T07:52:32.613Z,53.49
2018-05-14T07:53:32.530Z,53.13
2018-05-14T07:54:32.497Z,51.68
2018-05-14T07:55:32.393Z,51.85
2018-05-14T07:56:32.280Z,52.94
2018-05-14T07:57:32.197Z,51.87
2018-05-14T07:58:32.116Z,50.52
2018-05-14T07:59:32.069Z,51.29
2018-05-14T08:00:31.982Z,51.85
2018-05-14T08:01:31.871Z,52.04
2018-05-14T08:02:31.784Z,51.63
2018-05-14T08:03:32.243Z,52.57
2018-05-14T08:04:31.621Z,53.15
2018-05-14T08:05:31.640Z,51.89
2018-05-14T08:06:31.457Z,52.89
2018-05-14T08:07:31.377Z,51.22
2018-05-14T08:08:31.291Z,51.99
2018-05-14T08:09:31.214Z,52.76
2018-05-14T08:10:31.159Z,52.25
2018-05-14T08:11:31.047Z,52.09
2018-05-14T08:12:30.964Z,52.37
2018-05-14T08:13:30.881Z,52.11
2018-05-14T08:14:30.802Z,50.96
2018-05-14T08:15:30.747Z,49.29
2018-05-14T08:16:30.636Z,50.26
2018-05-14T08:17:30.550Z,49.96
2018-05-14T08:18:30.470Z,51.53
2018-05-14T08:19:30.385Z,49.99
2018-05-14T08:20:30.339Z,50.47
2018-05-14T08:21:30.222Z,50.38
2018-05-14T08:22:30.140Z,49.41
2018-05-14T08:23:30.077Z,49.12
2018-05-14T08:24:29.975Z,50.79
2018-05-14T08:25:29.922Z,48.30
2018-05-14T08:26:29.806Z,47.81
2018-05-14T08:27:29.729Z,47.14
2018-05-14T08:28:29.644Z,47.72
2018-05-14T08:29:29.562Z,47.72
2018-05-14T08:30:29.508Z,48.59
2018-05-14T08:31:29.404Z,45.79
2018-05-14T08:32:29.315Z,47.63
2018-05-14T08:33:29.228Z,45.98
2018-05-14T08:34:29.151Z,46.08
2018-05-14T08:35:29.098Z,46.58
2018-05-14T08:36:28.985Z,46.85
2018-05-14T08:37:28.905Z,46.15
2018-05-14T08:38:28.820Z,46.95
2018-05-14T08:39:28.742Z,47.72
2018-05-14T08:40:28.689Z,49.41
2018-05-14T08:41:28.577Z,45.86
2018-05-14T08:42:28.516Z,44.57
2018-05-14T08:43:28.413Z,44.79
2018-05-14T08:44:28.330Z,44.50
2018-05-14T08:45:28.251Z,44.26
2018-05-14T08:46:28.198Z,43.34
2018-05-14T08:47:28.089Z,43.99
2018-05-14T08:48:28.005Z,44.77
2018-05-14T08:49:28.052Z,44.65
2018-05-14T08:50:27.844Z,45.83
2018-05-14T08:51:27.796Z,47.21
2018-05-14T08:52:27.687Z,45.57
2018-05-14T08:53:27.596Z,45.66
2018-05-14T08:54:27.591Z,45.54
2018-05-14T08:55:27.438Z,46.49
2018-05-14T08:56:27.394Z,46.97
2018-05-14T08:57:27.315Z,46.61
2018-05-14T08:58:27.192Z,47.67
2018-05-14T08:59:27.113Z,46.05
2018-05-14T09:00:27.031Z,45.93
2018-05-14T09:01:27.074Z,45.62
2018-05-14T09:02:26.871Z,46.42
2018-05-14T09:03:26.788Z,45.76
2018-05-14T09:04:26.710Z,45.79
2018-05-14T09:05:26.626Z,47.45
2018-05-14T09:06:26.577Z,46.39
2018-05-14T09:07:26.467Z,46.00
2018-05-14T09:08:27.302Z,47.00
2018-05-14T09:09:26.304Z,47.48
2018-05-14T09:10:26.224Z,45.54
2018-05-14T09:11:26.174Z,45.91
2018-05-14T09:12:26.060Z,45.83
2018-05-14T09:13:25.980Z,46.00
2018-05-14T09:14:25.902Z,47.00
2018-05-14T09:15:25.910Z,46.80
2018-05-14T09:16:25.768Z,45.23
2018-05-14T09:17:26.271Z,45.79
2018-05-14T09:18:25.574Z,46.49
2018-05-14T09:19:25.530Z,46.97
2018-05-14T09:20:25.414Z,46.49
2018-05-14T09:21:25.360Z,45.81
2018-05-14T09:22:25.342Z,47.36
2018-05-14T09:23:25.167Z,46.12
2018-05-14T09:24:25.086Z,44.67
2018-05-14T09:25:25.009Z,45.83
2018-05-14T09:26:24.955Z,47.50
2018-05-14T09:27:24.841Z,45.95
2018-05-14T09:28:24.766Z,45.16
2018-05-14T09:29:24.772Z,45.93
2018-05-14T09:30:24.597Z,47.21
2018-05-14T09:31:24.569Z,44.89
2018-05-14T09:32:24.435Z,44.26
2018-05-14T09:33:25.831Z,44.46
2018-05-14T09:34:24.272Z,44.57
2018-05-14T09:35:24.193Z,45.74
2018-05-14T09:36:25.776Z,44.50
2018-05-14T09:37:25.777Z,44.81
2018-05-14T09:38:23.947Z,44.64
2018-05-14T09:39:23.867Z,44.84
2018-05-14T09:40:23.787Z,43.19
2018-05-14T09:41:23.734Z,42.78
2018-05-14T09:42:23.624Z,42.86
2018-05-14T09:43:23.636Z,43.61
2018-05-14T09:44:23.462Z,44.87
2018-05-14T09:45:23.380Z,44.31
2018-05-14T09:46:23.334Z,43.65
2018-05-14T09:47:23.217Z,44.16
2018-05-14T09:48:23.139Z,42.97
2018-05-14T09:49:23.057Z,44.70
2018-05-14T09:50:23.155Z,44.12
2018-05-14T09:51:22.927Z,43.44
2018-05-14T09:52:22.812Z,45.47
2018-05-14T09:53:22.733Z,44.40
2018-05-14T09:54:22.653Z,43.82
2018-05-14T09:55:22.572Z,43.05
2018-05-14T09:56:22.522Z,44.23
2018-05-14T09:57:22.523Z,44.74
2018-05-14T09:58:22.329Z,42.41
2018-05-14T09:59:22.248Z,42.86
2018-05-14T10:00:22.166Z,42.97
2018-05-14T10:01:22.088Z,41.99
2018-05-14T10:02:22.036Z,42.90
2018-05-14T10:03:21.925Z,41.52
2018-05-14T10:04:21.940Z,41.06
2018-05-14T10:05:21.765Z,40.86
2018-05-14T10:06:21.696Z,40.52
2018-05-14T10:07:21.636Z,40.69
2018-05-14T10:08:21.521Z,39.90
2018-05-14T10:09:21.442Z,41.06
2018-05-14T10:10:22.292Z,40.75
2018-05-14T10:11:21.373Z,41.42
2018-05-14T10:12:21.232Z,40.86
2018-05-14T10:13:21.118Z,42.44
2018-05-14T10:14:21.039Z,42.14
2018-05-14T10:15:20.960Z,39.53
2018-05-14T10:16:20.878Z,38.37
2018-05-14T10:17:20.828Z,42.14
2018-05-14T10:18:20.824Z,40.77
2018-05-14T10:19:20.637Z,40.36
2018-05-14T10:20:20.556Z,40.63
2018-05-14T10:21:20.478Z,40.71
2018-05-14T10:22:20.427Z,41.29
2018-05-14T10:23:20.318Z,42.37
2018-05-14T10:24:20.236Z,42.30
2018-05-14T10:25:20.249Z,39.88
2018-05-14T10:26:20.074Z,40.84
2018-05-14T10:27:20.027Z,39.59
2018-05-14T10:28:19.911Z,41.25
2018-05-14T10:29:19.846Z,40.58
2018-05-14T10:30:19.753Z,40.86
2018-05-14T10:31:19.671Z,40.84
2018-05-14T10:32:19.711Z,42.18
2018-05-14T10:33:19.510Z,42.08
2018-05-14T10:34:19.430Z,41.31
2018-05-14T10:35:21.300Z,41.21
2018-05-14T10:36:19.270Z,40.65
2018-05-14T10:37:19.224Z,40.75
2018-05-14T10:38:19.106Z,41.64
2018-05-14T10:39:19.029Z,40.40
2018-05-14T10:40:18.944Z,37.09
2018-05-14T10:41:18.870Z,34.55
2018-05-14T10:42:18.816Z,35.72
2018-05-14T10:43:18.705Z,37.15
2018-05-14T10:44:18.624Z,37.15
2018-05-14T10:45:18.550Z,38.71
2018-05-14T10:46:18.461Z,37.85
2018-05-14T10:47:19.304Z,39.51
2018-05-14T10:48:18.301Z,41.17
2018-05-14T10:49:18.219Z,38.00
2018-05-14T10:50:18.138Z,38.02
2018-05-14T10:51:18.057Z,36.52
2018-05-14T10:52:18.007Z,37.88
2018-05-14T10:53:17.895Z,36.82
2018-05-14T10:54:17.817Z,38.19
2018-05-14T10:55:17.733Z,36.74
2018-05-14T10:56:17.655Z,37.41
2018-05-14T10:57:18.309Z,36.85
2018-05-14T10:58:17.494Z,36.16
2018-05-14T10:59:17.413Z,36.14
2018-05-14T11:00:17.334Z,35.27
2018-05-14T11:01:17.253Z,35.44
2018-05-14T11:02:17.205Z,35.93
2018-05-14T11:03:17.095Z,34.69
2018-05-14T11:04:17.020Z,34.38
2018-05-14T11:05:16.933Z,34.96
2018-05-14T11:06:16.857Z,35.35
2018-05-14T11:07:16.808Z,35.17
2018-05-14T11:08:16.693Z,34.97
2018-05-14T11:09:16.613Z,35.73
2018-05-14T11:10:16.529Z,36.02
2018-05-14T11:11:16.455Z,36.62
2018-05-14T11:12:16.404Z,37.03
2018-05-14T11:13:16.293Z,35.77
2018-05-14T11:14:16.213Z,36.64
2018-05-14T11:15:16.132Z,37.05
2018-05-14T11:16:16.064Z,36.66
2018-05-14T11:17:15.975Z,34.41
2018-05-14T11:18:15.923Z,35.85
2018-05-14T11:19:15.812Z,36.76
2018-05-14T11:20:15.732Z,35.56
2018-05-14T11:21:15.941Z,37.82
2018-05-14T11:22:15.576Z,36.35
2018-05-14T11:23:15.525Z,34.96
2018-05-14T11:24:15.412Z,34.96
2018-05-14T11:25:15.819Z,36.12
2018-05-14T11:26:15.256Z,36.33
2018-05-14T11:27:15.194Z,35.17
2018-05-14T11:28:15.124Z,35.46
2018-05-14T11:29:15.013Z,35.44
2018-05-14T11:30:14.934Z,36.02
2018-05-14T11:31:14.854Z,36.72
2018-05-14T11:32:14.775Z,35.93
2018-05-14T11:33:14.725Z,37.21
2018-05-14T11:34:14.612Z,36.93
2018-05-14T11:35:14.626Z,38.29
2018-05-14T11:36:14.459Z,35.09
2018-05-14T11:37:14.375Z,35.28
2018-05-14T11:38:14.325Z,34.88
2018-05-14T11:39:14.222Z,37.13
2018-05-14T11:40:14.147Z,38.71
2018-05-14T11:41:14.056Z,35.77
2018-05-14T11:42:14.068Z,35.57
2018-05-14T11:43:13.926Z,36.93
2018-05-14T11:44:13.814Z,36.24
2018-05-14T11:45:13.748Z,36.12
2018-05-14T11:46:13.666Z,36.70
2018-05-14T11:47:13.576Z,37.88
2018-05-14T11:48:13.529Z,37.03
2018-05-14T11:49:13.510Z,35.54
2018-05-14T11:50:13.340Z,35.94
2018-05-14T11:51:13.257Z,36.72
2018-05-14T11:52:13.202Z,36.62
2018-05-14T11:53:13.128Z,39.06
2018-05-14T11:54:13.019Z,35.86
2018-05-14T11:55:12.943Z,35.46
2018-05-14T11:56:12.952Z,34.70
2018-05-14T11:57:12.777Z,35.75
2018-05-14T11:58:12.729Z,36.52
2018-05-14T11:59:12.623Z,36.33
2018-05-14T12:00:12.541Z,35.46
2018-05-14T12:01:12.458Z,36.52
2018-05-14T12:02:12.379Z,36.04
2018-05-14T12:03:12.510Z,36.99
2018-05-14T12:04:12.226Z,36.80
2018-05-14T12:05:12.139Z,38.78
2018-05-14T12:06:12.060Z,38.17
2018-05-14T12:07:11.983Z,39.94
2018-05-14T12:08:11.934Z,39.65
2018-05-14T12:09:11.822Z,37.01
2018-05-14T12:10:11.851Z,38.99
2018-05-14T12:11:11.661Z,39.49
2018-05-14T12:12:11.624Z,40.67
2018-05-14T12:13:11.531Z,39.04
2018-05-14T12:14:11.424Z,37.96
2018-05-14T12:15:11.353Z,39.12
2018-05-14T12:16:11.343Z,39.22
2018-05-14T12:17:11.275Z,37.21
2018-05-14T12:18:11.148Z,40.61
2018-05-14T12:19:11.023Z,37.65
2018-05-14T12:20:10.941Z,37.05
2018-05-14T12:21:10.860Z,36.06
2018-05-14T12:22:10.783Z,36.83
2018-05-14T12:23:10.733Z,35.35
2018-05-14T12:24:10.719Z,38.46
2018-05-14T12:25:10.541Z,37.09
2018-05-14T12:26:10.465Z,38.06
2018-05-14T12:27:10.897Z,36.80
2018-05-14T12:28:10.303Z,37.36
2018-05-14T12:29:10.251Z,39.51
2018-05-14T12:30:10.235Z,39.34
2018-05-14T12:31:10.066Z,40.33
2018-05-14T12:32:10.074Z,39.06
2018-05-14T12:33:09.903Z,40.61
2018-05-14T12:34:09.855Z,37.43
2018-05-14T12:35:09.746Z,37.81
2018-05-14T12:36:09.665Z,38.07
2018-05-14T12:37:09.580Z,37.96
2018-05-14T12:38:09.514Z,38.17
2018-05-14T12:39:10.348Z,37.96
2018-05-14T12:40:09.343Z,39.24
2018-05-14T12:41:09.264Z,39.14
2018-05-14T12:42:09.184Z,37.09
2018-05-14T12:43:09.110Z,38.27
2018-05-14T12:44:09.851Z,37.69
2018-05-14T12:45:08.943Z,38.19
2018-05-14T12:46:08.959Z,36.90
2018-05-14T12:47:08.786Z,37.30
2018-05-14T12:48:08.707Z,35.54
2018-05-14T12:49:08.658Z,35.56
2018-05-14T12:50:08.559Z,36.52
2018-05-14T12:51:08.467Z,38.17